sensor_id;sensor_type;location;lat;lon;timestamp;pressure;altitude;pressure_sealevel;temperature;humidity
54920;BME280;63804;53.120;8.764;2023-03-04T00:00:56;102374.84;;;4.68;70.41
54920;BME280;63804;53.120;8.764;2023-03-04T00:03:21;102372.16;;;4.70;70.68
54920;BME280;63804;53.120;8.764;2023-03-04T00:05:47;102367.94;;;4.64;70.61
54920;BME280;63804;53.120;8.764;2023-03-04T00:08:12;102369.50;;;4.70;70.08
54920;BME280;63804;53.120;8.764;2023-03-04T00:10:38;102372.97;;;4.72;70.29
54920;BME280;63804;53.120;8.764;2023-03-04T00:13:03;102364.19;;;4.71;70.18
54920;BME280;63804;53.120;8.764;2023-03-04T00:15:29;102361.53;;;4.73;70.35
54920;BME280;63804;53.120;8.764;2023-03-04T00:17:54;102358.75;;;4.77;70.29
54920;BME280;63804;53.120;8.764;2023-03-04T00:20:20;102353.78;;;4.68;70.41
54920;BME280;63804;53.120;8.764;2023-03-04T00:22:46;102359.06;;;4.67;70.59
54920;BME280;63804;53.120;8.764;2023-03-04T00:25:11;102360.66;;;4.72;70.28
54920;BME280;63804;53.120;8.764;2023-03-04T00:27:37;102358.91;;;4.73;70.39
54920;BME280;63804;53.120;8.764;2023-03-04T00:30:04;102358.03;;;4.72;70.52
54920;BME280;63804;53.120;8.764;2023-03-04T00:32:30;102354.56;;;4.72;70.70
54920;BME280;63804;53.120;8.764;2023-03-04T00:34:55;102348.44;;;4.70;70.77
54920;BME280;63804;53.120;8.764;2023-03-04T00:37:21;102348.53;;;4.68;70.91
54920;BME280;63804;53.120;8.764;2023-03-04T00:39:46;102358.91;;;4.73;70.73
54920;BME280;63804;53.120;8.764;2023-03-04T00:42:12;102347.44;;;4.74;70.45
54920;BME280;63804;53.120;8.764;2023-03-04T00:44:37;102347.50;;;4.72;70.72
54920;BME280;63804;53.120;8.764;2023-03-04T00:47:02;102349.22;;;4.73;70.54
54920;BME280;63804;53.120;8.764;2023-03-04T00:49:28;102342.28;;;4.71;70.74
54920;BME280;63804;53.120;8.764;2023-03-04T00:51:53;102341.56;;;4.66;71.08
54920;BME280;63804;53.120;8.764;2023-03-04T00:54:19;102337.84;;;4.73;70.99
54920;BME280;63804;53.120;8.764;2023-03-04T00:56:44;102335.19;;;4.73;70.64
54920;BME280;63804;53.120;8.764;2023-03-04T00:59:09;102335.09;;;4.76;70.71
54920;BME280;63804;53.120;8.764;2023-03-04T01:01:35;102347.59;;;4.69;70.64
54920;BME280;63804;53.120;8.764;2023-03-04T01:04:00;102340.66;;;4.67;70.76
54920;BME280;63804;53.120;8.764;2023-03-04T01:06:26;102338.78;;;4.70;70.72
54920;BME280;63804;53.120;8.764;2023-03-04T01:08:51;102333.56;;;4.69;70.72
54920;BME280;63804;53.120;8.764;2023-03-04T01:11:17;102332.91;;;4.62;70.49
54920;BME280;63804;53.120;8.764;2023-03-04T01:13:42;102325.53;;;4.73;70.34
54920;BME280;63804;53.120;8.764;2023-03-04T01:16:07;102324.66;;;4.73;70.42
54920;BME280;63804;53.120;8.764;2023-03-04T01:18:35;102328.25;;;4.70;70.56
54920;BME280;63804;53.120;8.764;2023-03-04T01:21:01;102327.31;;;4.73;70.54
54920;BME280;63804;53.120;8.764;2023-03-04T01:23:26;102324.75;;;4.70;70.52
54920;BME280;63804;53.120;8.764;2023-03-04T01:25:52;102318.63;;;4.69;70.68
54920;BME280;63804;53.120;8.764;2023-03-04T01:28:18;102316.88;;;4.70;70.56
54920;BME280;63804;53.120;8.764;2023-03-04T01:30:43;102320.44;;;4.67;70.60
54920;BME280;63804;53.120;8.764;2023-03-04T01:33:09;102319.56;;;4.68;70.56
54920;BME280;63804;53.120;8.764;2023-03-04T01:35:35;102319.41;;;4.73;70.71
54920;BME280;63804;53.120;8.764;2023-03-04T01:38:00;102322.84;;;4.75;70.99
54920;BME280;63804;53.120;8.764;2023-03-04T01:40:26;102310.91;;;4.65;71.21
54920;BME280;63804;53.120;8.764;2023-03-04T01:42:51;102307.34;;;4.66;71.68
54920;BME280;63804;53.120;8.764;2023-03-04T01:45:18;102306.41;;;4.68;71.43
54920;BME280;63804;53.120;8.764;2023-03-04T01:47:48;102294.00;;;4.72;71.35
54920;BME280;63804;53.120;8.764;2023-03-04T01:50:27;102300.06;;;4.74;71.27
54920;BME280;63804;53.120;8.764;2023-03-04T01:52:55;102297.41;;;4.75;70.88
54920;BME280;63804;53.120;8.764;2023-03-04T01:55:22;102286.03;;;4.73;70.36
54920;BME280;63804;53.120;8.764;2023-03-04T01:57:48;102282.56;;;4.73;70.07
54920;BME280;63804;53.120;8.764;2023-03-04T02:00:29;102279.94;;;4.71;69.68
54920;BME280;63804;53.120;8.764;2023-03-04T02:03:02;102275.59;;;4.70;69.56
54920;BME280;63804;53.120;8.764;2023-03-04T02:05:29;102274.69;;;4.71;69.47
54920;BME280;63804;53.120;8.764;2023-03-04T02:07:56;102273.69;;;4.75;69.00
54920;BME280;63804;53.120;8.764;2023-03-04T02:10:23;102277.13;;;4.77;68.97
54920;BME280;63804;53.120;8.764;2023-03-04T02:12:49;102275.41;;;4.76;68.85
54920;BME280;63804;53.120;8.764;2023-03-04T02:15:15;102271.94;;;4.76;68.87
54920;BME280;63804;53.120;8.764;2023-03-04T02:17:40;102269.16;;;4.79;68.60
54920;BME280;63804;53.120;8.764;2023-03-04T02:23:18;102246.63;;;4.72;69.33
54920;BME280;63804;53.120;8.764;2023-03-04T02:26:15;102256.22;;;4.73;69.66
54920;BME280;63804;53.120;8.764;2023-03-04T02:28:42;102257.16;;;4.72;70.13
54920;BME280;63804;53.120;8.764;2023-03-04T02:31:37;102254.44;;;4.73;70.85
54920;BME280;63804;53.120;8.764;2023-03-04T02:36:39;102246.81;;;4.66;72.71
54920;BME280;63804;53.120;8.764;2023-03-04T02:39:11;102241.53;;;4.66;73.10
54920;BME280;63804;53.120;8.764;2023-03-04T02:41:37;102235.34;;;4.67;73.22
54920;BME280;63804;53.120;8.764;2023-03-04T02:44:15;102240.53;;;4.70;73.92
54920;BME280;63804;53.120;8.764;2023-03-04T02:46:41;102244.06;;;4.69;73.70
54920;BME280;63804;53.120;8.764;2023-03-04T02:49:07;102236.38;;;4.63;73.94
54920;BME280;63804;53.120;8.764;2023-03-04T02:51:32;102234.66;;;4.62;73.81
54920;BME280;63804;53.120;8.764;2023-03-04T02:53:58;102233.75;;;4.63;74.11
54920;BME280;63804;53.120;8.764;2023-03-04T02:56:23;102236.47;;;4.59;74.12
54920;BME280;63804;53.120;8.764;2023-03-04T02:58:48;102231.22;;;4.59;74.09
54920;BME280;63804;53.120;8.764;2023-03-04T03:01:14;102220.75;;;4.58;73.92
54920;BME280;63804;53.120;8.764;2023-03-04T03:03:39;102223.28;;;4.61;74.04
54920;BME280;63804;53.120;8.764;2023-03-04T03:06:05;102225.91;;;4.61;73.92
54920;BME280;63804;53.120;8.764;2023-03-04T03:08:30;102221.53;;;4.60;74.15
54920;BME280;63804;53.120;8.764;2023-03-04T03:10:56;102212.69;;;4.63;74.08
54920;BME280;63804;53.120;8.764;2023-03-04T03:13:21;102215.22;;;4.66;73.85
54920;BME280;63804;53.120;8.764;2023-03-04T03:15:47;102215.31;;;4.63;73.84
54920;BME280;63804;53.120;8.764;2023-03-04T03:18:12;102205.81;;;4.58;73.43
54920;BME280;63804;53.120;8.764;2023-03-04T03:20:38;102199.75;;;4.56;73.32
54920;BME280;63804;53.120;8.764;2023-03-04T03:23:04;102201.25;;;4.64;73.35
54920;BME280;63804;53.120;8.764;2023-03-04T03:25:29;102202.22;;;4.61;73.43
54920;BME280;63804;53.120;8.764;2023-03-04T03:27:55;102210.97;;;4.62;73.32
54920;BME280;63804;53.120;8.764;2023-03-04T03:30:21;102199.63;;;4.59;73.32
54920;BME280;63804;53.120;8.764;2023-03-04T03:32:47;102191.59;;;4.64;73.14
54920;BME280;63804;53.120;8.764;2023-03-04T03:35:12;102190.59;;;4.67;72.97
54920;BME280;63804;53.120;8.764;2023-03-04T03:37:37;102192.28;;;4.69;72.88
54920;BME280;63804;53.120;8.764;2023-03-04T03:40:03;102192.22;;;4.71;72.92
54920;BME280;63804;53.120;8.764;2023-03-04T03:42:29;102183.72;;;4.63;72.63
54920;BME280;63804;53.120;8.764;2023-03-04T03:44:55;102189.84;;;4.63;72.84
54920;BME280;63804;53.120;8.764;2023-03-04T03:47:20;102188.22;;;4.61;72.96
54920;BME280;63804;53.120;8.764;2023-03-04T03:49:46;102191.59;;;4.64;73.07
54920;BME280;63804;53.120;8.764;2023-03-04T03:52:18;102191.44;;;4.69;73.10
54920;BME280;63804;53.120;8.764;2023-03-04T03:54:43;102196.09;;;4.61;73.63
54920;BME280;63804;53.120;8.764;2023-03-04T03:57:15;102187.28;;;4.62;73.90
54920;BME280;63804;53.120;8.764;2023-03-04T03:59:40;102186.47;;;4.59;74.07
54920;BME280;63804;53.120;8.764;2023-03-04T04:02:06;102183.97;;;4.56;74.34
54920;BME280;63804;53.120;8.764;2023-03-04T04:04:31;102180.56;;;4.53;74.70
54920;BME280;63804;53.120;8.764;2023-03-04T04:06:57;102181.59;;;4.49;74.81
54920;BME280;63804;53.120;8.764;2023-03-04T04:09:23;102176.53;;;4.43;75.02
54920;BME280;63804;53.120;8.764;2023-03-04T04:11:48;102183.41;;;4.47;75.07
54920;BME280;63804;53.120;8.764;2023-03-04T04:14:14;102181.63;;;4.47;75.12
54920;BME280;63804;53.120;8.764;2023-03-04T04:16:39;102177.44;;;4.42;75.37
54920;BME280;63804;53.120;8.764;2023-03-04T04:19:05;102169.28;;;4.49;75.51
54920;BME280;63804;53.120;8.764;2023-03-04T04:21:31;102171.94;;;4.48;75.46
54920;BME280;63804;53.120;8.764;2023-03-04T04:23:56;102162.34;;;4.47;75.71
54920;BME280;63804;53.120;8.764;2023-03-04T04:26:22;102164.22;;;4.43;75.86
54920;BME280;63804;53.120;8.764;2023-03-04T04:28:47;102164.38;;;4.39;76.70
54920;BME280;63804;53.120;8.764;2023-03-04T04:31:13;102161.06;;;4.33;76.96
54920;BME280;63804;53.120;8.764;2023-03-04T04:33:38;102164.47;;;4.35;77.17
54920;BME280;63804;53.120;8.764;2023-03-04T04:36:04;102159.53;;;4.26;77.95
54920;BME280;63804;53.120;8.764;2023-03-04T04:38:30;102164.63;;;4.31;78.27
54920;BME280;63804;53.120;8.764;2023-03-04T04:40:59;102154.00;;;4.34;77.66
54920;BME280;63804;53.120;8.764;2023-03-04T04:43:24;102156.75;;;4.31;78.40
54920;BME280;63804;53.120;8.764;2023-03-04T04:45:50;102156.84;;;4.28;78.91
54920;BME280;63804;53.120;8.764;2023-03-04T04:48:16;102158.53;;;4.29;79.05
54920;BME280;63804;53.120;8.764;2023-03-04T04:50:41;102163.81;;;4.29;78.53
54920;BME280;63804;53.120;8.764;2023-03-04T04:53:07;102156.06;;;4.24;79.28
54920;BME280;63804;53.120;8.764;2023-03-04T04:55:33;102163.97;;;4.24;79.14
54920;BME280;63804;53.120;8.764;2023-03-04T04:57:59;102166.69;;;4.21;79.43
54920;BME280;63804;53.120;8.764;2023-03-04T05:00:25;102167.50;;;4.23;79.47
54920;BME280;63804;53.120;8.764;2023-03-04T05:02:50;102162.16;;;4.26;79.61
54920;BME280;63804;53.120;8.764;2023-03-04T05:05:15;102155.97;;;4.27;79.48
54920;BME280;63804;53.120;8.764;2023-03-04T05:07:41;102171.00;;;4.24;79.74
54920;BME280;63804;53.120;8.764;2023-03-04T05:10:07;102157.75;;;4.27;79.25
54920;BME280;63804;53.120;8.764;2023-03-04T05:12:33;102149.19;;;4.20;79.92
54920;BME280;63804;53.120;8.764;2023-03-04T05:14:59;102155.28;;;4.22;79.65
54920;BME280;63804;53.120;8.764;2023-03-04T05:17:24;102152.53;;;4.25;79.81
54920;BME280;63804;53.120;8.764;2023-03-04T05:19:50;102170.16;;;4.23;80.37
54920;BME280;63804;53.120;8.764;2023-03-04T05:22:15;102152.84;;;4.16;80.87
54920;BME280;63804;53.120;8.764;2023-03-04T05:24:40;102159.78;;;4.19;80.85
54920;BME280;63804;53.120;8.764;2023-03-04T05:27:06;102159.78;;;4.19;81.47
54920;BME280;63804;53.120;8.764;2023-03-04T05:29:31;102168.69;;;4.15;81.87
54920;BME280;63804;53.120;8.764;2023-03-04T05:31:57;102173.78;;;4.19;81.93
54920;BME280;63804;53.120;8.764;2023-03-04T05:34:22;102172.00;;;4.20;82.00
54920;BME280;63804;53.120;8.764;2023-03-04T05:36:48;102159.88;;;4.16;82.29
54920;BME280;63804;53.120;8.764;2023-03-04T05:39:13;102161.56;;;4.18;81.77
54920;BME280;63804;53.120;8.764;2023-03-04T05:41:39;102158.16;;;4.15;82.14
54920;BME280;63804;53.120;8.764;2023-03-04T05:44:04;102166.91;;;4.15;81.72
54920;BME280;63804;53.120;8.764;2023-03-04T05:46:30;102160.63;;;4.19;81.62
54920;BME280;63804;53.120;8.764;2023-03-04T05:48:55;102157.16;;;4.19;82.17
54920;BME280;63804;53.120;8.764;2023-03-04T05:51:21;102166.75;;;4.20;81.63
54920;BME280;63804;53.120;8.764;2023-03-04T05:53:47;102162.50;;;4.16;81.99
54920;BME280;63804;53.120;8.764;2023-03-04T05:56:15;102157.94;;;4.21;82.44
54920;BME280;63804;53.120;8.764;2023-03-04T05:58:41;102164.19;;;4.18;82.41
54920;BME280;63804;53.120;8.764;2023-03-04T06:01:07;102159.78;;;4.19;82.37
54920;BME280;63804;53.120;8.764;2023-03-04T06:03:33;102155.16;;;4.25;82.59
54920;BME280;63804;53.120;8.764;2023-03-04T06:05:59;102150.88;;;4.23;82.33
54920;BME280;63804;53.120;8.764;2023-03-04T06:08:25;102149.03;;;4.25;82.42
54920;BME280;63804;53.120;8.764;2023-03-04T06:10:54;102155.06;;;4.28;82.03
54920;BME280;63804;53.120;8.764;2023-03-04T06:13:20;102154.28;;;4.26;82.54
54920;BME280;63804;53.120;8.764;2023-03-04T06:15:46;102157.66;;;4.30;82.55
54920;BME280;63804;53.120;8.764;2023-03-04T06:18:12;102157.69;;;4.28;82.49
54920;BME280;63804;53.120;8.764;2023-03-04T06:20:38;102148.75;;;4.34;82.57
54920;BME280;63804;53.120;8.764;2023-03-04T06:23:06;102149.44;;;4.39;82.80
54920;BME280;63804;53.120;8.764;2023-03-04T06:25:32;102146.91;;;4.36;82.72
54920;BME280;63804;53.120;8.764;2023-03-04T06:27:57;102151.50;;;4.29;83.08
54920;BME280;63804;53.120;8.764;2023-03-04T06:30:23;102146.13;;;4.34;82.89
54920;BME280;63804;53.120;8.764;2023-03-04T06:32:48;102148.78;;;4.32;83.67
54920;BME280;63804;53.120;8.764;2023-03-04T06:35:15;102159.28;;;4.34;83.49
54920;BME280;63804;53.120;8.764;2023-03-04T06:37:40;102162.09;;;4.28;83.92
54920;BME280;63804;53.120;8.764;2023-03-04T06:40:08;102164.53;;;4.34;83.73
54920;BME280;63804;53.120;8.764;2023-03-04T06:42:34;102168.06;;;4.33;83.99
54920;BME280;63804;53.120;8.764;2023-03-04T06:45:00;102175.09;;;4.32;83.88
54920;BME280;63804;53.120;8.764;2023-03-04T06:47:26;102173.13;;;4.39;83.78
54920;BME280;63804;53.120;8.764;2023-03-04T06:49:52;102176.53;;;4.43;83.10
54920;BME280;63804;53.120;8.764;2023-03-04T06:52:17;102183.34;;;4.48;83.33
54920;BME280;63804;53.120;8.764;2023-03-04T06:54:43;102162.44;;;4.44;83.07
54920;BME280;63804;53.120;8.764;2023-03-04T06:57:08;102180.94;;;4.42;83.20
54920;BME280;63804;53.120;8.764;2023-03-04T06:59:33;102174.84;;;4.40;82.67
54920;BME280;63804;53.120;8.764;2023-03-04T07:01:59;102177.38;;;4.43;82.45
54920;BME280;63804;53.120;8.764;2023-03-04T07:04:25;102173.81;;;4.44;82.24
54920;BME280;63804;53.120;8.764;2023-03-04T07:06:50;102170.91;;;4.53;81.71
54920;BME280;63804;53.120;8.764;2023-03-04T07:09:16;102173.63;;;4.50;81.66
54920;BME280;63804;53.120;8.764;2023-03-04T07:11:42;102173.38;;;4.58;81.24
54920;BME280;63804;53.120;8.764;2023-03-04T07:14:07;102177.53;;;4.64;80.78
54920;BME280;63804;53.120;8.764;2023-03-04T07:16:32;102174.03;;;4.65;81.11
54920;BME280;63804;53.120;8.764;2023-03-04T07:18:58;102171.53;;;4.60;81.11
54920;BME280;63804;53.120;8.764;2023-03-04T07:21:24;102174.91;;;4.64;80.61
54920;BME280;63804;53.120;8.764;2023-03-04T07:23:50;102176.66;;;4.65;80.29
54920;BME280;63804;53.120;8.764;2023-03-04T07:26:16;102175.91;;;4.61;80.34
54920;BME280;63804;53.120;8.764;2023-03-04T07:28:41;102185.50;;;4.62;80.51
54920;BME280;63804;53.120;8.764;2023-03-04T07:31:13;102173.53;;;4.53;80.80
54920;BME280;63804;53.120;8.764;2023-03-04T07:33:43;102176.00;;;4.58;80.42
54920;BME280;63804;53.120;8.764;2023-03-04T07:36:09;102182.81;;;4.64;80.77
54920;BME280;63804;53.120;8.764;2023-03-04T07:38:35;102175.91;;;4.61;80.74
54920;BME280;63804;53.120;8.764;2023-03-04T07:41:01;102184.69;;;4.60;80.63
54920;BME280;63804;53.120;8.764;2023-03-04T07:43:27;102183.91;;;4.58;80.76
54920;BME280;63804;53.120;8.764;2023-03-04T07:45:58;102191.69;;;4.61;80.67
54920;BME280;63804;53.120;8.764;2023-03-04T07:48:24;102192.66;;;4.58;80.08
54920;BME280;63804;53.120;8.764;2023-03-04T07:51:01;102196.09;;;4.61;79.89
54920;BME280;63804;53.120;8.764;2023-03-04T07:53:27;102182.13;;;4.58;79.57
54920;BME280;63804;53.120;8.764;2023-03-04T07:55:52;102194.22;;;4.64;79.02
54920;BME280;63804;53.120;8.764;2023-03-04T07:58:18;102189.69;;;4.68;78.25
54920;BME280;63804;53.120;8.764;2023-03-04T08:00:44;102181.78;;;4.68;77.31
54920;BME280;63804;53.120;8.764;2023-03-04T08:03:09;102188.47;;;4.78;76.68
54920;BME280;63804;53.120;8.764;2023-03-04T08:05:38;102185.91;;;4.76;76.45
54920;BME280;63804;53.120;8.764;2023-03-04T08:08:03;102190.19;;;4.79;76.06
54920;BME280;63804;53.120;8.764;2023-03-04T08:10:29;102184.88;;;4.80;76.01
54920;BME280;63804;53.120;8.764;2023-03-04T08:12:54;102194.59;;;4.78;75.21
54920;BME280;63804;53.120;8.764;2023-03-04T08:15:20;102182.16;;;4.83;75.17
54920;BME280;63804;53.120;8.764;2023-03-04T08:17:45;102186.44;;;4.86;74.92
54920;BME280;63804;53.120;8.764;2023-03-04T08:20:11;102183.75;;;4.88;75.14
54920;BME280;63804;53.120;8.764;2023-03-04T08:22:36;102190.63;;;4.92;74.33
54920;BME280;63804;53.120;8.764;2023-03-04T08:25:02;102179.19;;;4.93;74.56
54920;BME280;63804;53.120;8.764;2023-03-04T08:27:27;102190.53;;;4.95;74.80
54920;BME280;63804;53.120;8.764;2023-03-04T08:29:53;102188.84;;;4.92;74.93
54920;BME280;63804;53.120;8.764;2023-03-04T08:32:18;102194.22;;;4.89;73.54
54920;BME280;63804;53.120;8.764;2023-03-04T08:34:44;102191.38;;;4.95;73.37
54920;BME280;63804;53.120;8.764;2023-03-04T08:37:09;102192.75;;;5.05;72.41
54920;BME280;63804;53.120;8.764;2023-03-04T08:39:35;102204.78;;;5.13;72.67
54920;BME280;63804;53.120;8.764;2023-03-04T08:42:02;102204.03;;;5.09;71.34
54920;BME280;63804;53.120;8.764;2023-03-04T08:44:28;102204.88;;;5.11;70.82
54920;BME280;63804;53.120;8.764;2023-03-04T08:46:53;102214.53;;;5.11;70.45
54920;BME280;63804;53.120;8.764;2023-03-04T08:49:19;102210.72;;;5.19;69.10
54920;BME280;63804;53.120;8.764;2023-03-04T08:51:44;102208.34;;;5.12;69.07
54920;BME280;63804;53.120;8.764;2023-03-04T08:54:10;102200.94;;;5.23;68.88
54920;BME280;63804;53.120;8.764;2023-03-04T08:56:36;102202.63;;;5.24;68.78
54920;BME280;63804;53.120;8.764;2023-03-04T08:59:02;102207.13;;;5.22;68.84
54920;BME280;63804;53.120;8.764;2023-03-04T09:01:28;102215.16;;;5.17;68.76
54920;BME280;63804;53.120;8.764;2023-03-04T09:03:53;102214.47;;;5.12;69.20
54920;BME280;63804;53.120;8.764;2023-03-04T09:06:19;102207.03;;;5.00;70.06
54920;BME280;63804;53.120;8.764;2023-03-04T09:08:45;102227.59;;;4.89;71.67
54920;BME280;63804;53.120;8.764;2023-03-04T09:11:11;102223.53;;;4.80;72.43
54920;BME280;63804;53.120;8.764;2023-03-04T09:13:37;102211.50;;;4.71;72.67
54920;BME280;63804;53.120;8.764;2023-03-04T09:16:08;102224.31;;;4.82;72.40
54920;BME280;63804;53.120;8.764;2023-03-04T09:18:45;102212.88;;;4.83;71.80
54920;BME280;63804;53.120;8.764;2023-03-04T09:21:11;102206.81;;;4.81;72.31
54920;BME280;63804;53.120;8.764;2023-03-04T09:23:37;102211.53;;;4.96;71.42
54920;BME280;63804;53.120;8.764;2023-03-04T09:26:22;102214.94;;;5.48;68.96
54920;BME280;63804;53.120;8.764;2023-03-04T09:28:52;102221.00;;;5.50;68.99
54920;BME280;63804;53.120;8.764;2023-03-04T09:31:19;102215.88;;;5.46;68.91
54920;BME280;63804;53.120;8.764;2023-03-04T09:33:45;102221.56;;;5.35;68.24
54920;BME280;63804;53.120;8.764;2023-03-04T09:36:12;102222.22;;;5.40;67.71
54920;BME280;63804;53.120;8.764;2023-03-04T09:38:44;102230.28;;;5.12;66.92
54920;BME280;63804;53.120;8.764;2023-03-04T09:41:26;102224.47;;;5.27;67.43
54920;BME280;63804;53.120;8.764;2023-03-04T09:43:56;102237.72;;;5.26;67.32
54920;BME280;63804;53.120;8.764;2023-03-04T09:46:33;102233.75;;;5.14;67.13
54920;BME280;63804;53.120;8.764;2023-03-04T09:48:59;102232.72;;;5.18;67.45
54920;BME280;63804;53.120;8.764;2023-03-04T09:51:45;102234.34;;;5.21;66.75
54920;BME280;63804;53.120;8.764;2023-03-04T09:57:14;102244.50;;;5.31;66.49
54920;BME280;63804;53.120;8.764;2023-03-04T10:03:05;102236.50;;;5.35;65.63
54920;BME280;63804;53.120;8.764;2023-03-04T10:05:45;102231.63;;;5.47;65.00
54920;BME280;63804;53.120;8.764;2023-03-04T10:10:51;102233.47;;;5.22;66.82
54920;BME280;63804;53.120;8.764;2023-03-04T10:13:25;102239.16;;;5.09;67.69
54920;BME280;63804;53.120;8.764;2023-03-04T10:15:56;102238.41;;;5.06;67.83
54920;BME280;63804;53.120;8.764;2023-03-04T10:18:31;102239.22;;;5.08;67.80
54920;BME280;63804;53.120;8.764;2023-03-04T10:21:01;102238.31;;;5.32;67.37
54920;BME280;63804;53.120;8.764;2023-03-04T10:23:30;102230.59;;;5.51;67.04
54920;BME280;63804;53.120;8.764;2023-03-04T10:25:58;102238.47;;;5.53;67.17
54920;BME280;63804;53.120;8.764;2023-03-04T10:28:29;102246.19;;;5.57;67.88
54920;BME280;63804;53.120;8.764;2023-03-04T10:31:10;102249.47;;;5.41;68.50
54920;BME280;63804;53.120;8.764;2023-03-04T10:33:38;102236.41;;;4.88;70.74
54920;BME280;63804;53.120;8.764;2023-03-04T10:38:47;102248.31;;;4.73;72.47
54920;BME280;63804;53.120;8.764;2023-03-04T10:41:20;102240.72;;;4.64;72.83
54920;BME280;63804;53.120;8.764;2023-03-04T10:46:40;102223.56;;;4.78;71.61
54920;BME280;63804;53.120;8.764;2023-03-04T10:49:09;102225.78;;;4.91;70.83
54920;BME280;63804;53.120;8.764;2023-03-04T10:54:29;102218.84;;;4.88;70.59
54920;BME280;63804;53.120;8.764;2023-03-04T10:56:56;102218.25;;;5.05;69.17
54920;BME280;63804;53.120;8.764;2023-03-04T11:02:13;102215.06;;;5.44;68.23
54920;BME280;63804;53.120;8.764;2023-03-04T11:04:39;102216.56;;;5.74;67.51
54920;BME280;63804;53.120;8.764;2023-03-04T11:07:09;102226.16;;;5.53;68.45
54920;BME280;63804;53.120;8.764;2023-03-04T11:09:35;102218.81;;;5.62;68.43
54920;BME280;63804;53.120;8.764;2023-03-04T11:12:01;102211.19;;;5.54;67.65
54920;BME280;63804;53.120;8.764;2023-03-04T11:14:54;102224.34;;;5.55;66.46
54920;BME280;63804;53.120;8.764;2023-03-04T11:17:47;102210.56;;;5.47;65.47
54920;BME280;63804;53.120;8.764;2023-03-04T11:20:32;102210.56;;;5.47;64.51
54920;BME280;63804;53.120;8.764;2023-03-04T11:23:01;102205.63;;;5.62;62.00
54920;BME280;63804;53.120;8.764;2023-03-04T11:25:32;102204.13;;;5.78;63.13
54920;BME280;63804;53.120;8.764;2023-03-04T11:28:02;102208.31;;;5.84;61.96
54920;BME280;63804;53.120;8.764;2023-03-04T11:30:40;102199.28;;;5.89;61.37
54920;BME280;63804;53.120;8.764;2023-03-04T11:35:54;102190.47;;;5.45;62.62
54920;BME280;63804;53.120;8.764;2023-03-04T11:38:31;102175.72;;;5.39;62.34
54920;BME280;63804;53.120;8.764;2023-03-04T11:41:03;102197.63;;;5.41;61.90
54920;BME280;63804;53.120;8.764;2023-03-04T11:43:37;102206.47;;;5.62;61.29
54920;BME280;63804;53.120;8.764;2023-03-04T11:49:16;102187.25;;;5.37;60.92
54920;BME280;63804;53.120;8.764;2023-03-04T11:57:27;102191.13;;;5.50;61.38
54920;BME280;63804;53.120;8.764;2023-03-04T12:22:44;102187.94;;;5.18;67.08
54920;BME280;63804;53.120;8.764;2023-03-04T12:30:33;102178.53;;;5.35;65.72
54920;BME280;63804;53.120;8.764;2023-03-04T12:33:30;102185.41;;;5.39;65.92
54920;BME280;63804;53.120;8.764;2023-03-04T12:45:12;102157.44;;;5.58;63.78
54920;BME280;63804;53.120;8.764;2023-03-04T12:50:38;102151.31;;;5.57;63.36
54920;BME280;63804;53.120;8.764;2023-03-04T12:53:30;102151.31;;;5.57;63.92
54920;BME280;63804;53.120;8.764;2023-03-04T12:55:58;102141.81;;;5.53;64.20
54920;BME280;63804;53.120;8.764;2023-03-04T12:58:29;102133.75;;;5.35;64.22
54920;BME280;63804;53.120;8.764;2023-03-04T13:06:25;102153.19;;;5.54;63.38
54920;BME280;63804;53.120;8.764;2023-03-04T13:09:32;102146.50;;;5.45;63.07
54920;BME280;63804;53.120;8.764;2023-03-04T13:12:19;102150.50;;;5.32;62.66
54920;BME280;63804;53.120;8.764;2023-03-04T13:28:31;102137.19;;;5.58;59.76
54920;BME280;63804;53.120;8.764;2023-03-04T13:41:21;102137.53;;;5.73;57.39
54920;BME280;63804;53.120;8.764;2023-03-04T13:43:56;102136.66;;;5.72;57.53
54920;BME280;63804;53.120;8.764;2023-03-04T13:51:42;102135.00;;;5.70;57.32
54920;BME280;63804;53.120;8.764;2023-03-04T13:54:16;102154.28;;;5.25;59.06
54920;BME280;63804;53.120;8.764;2023-03-04T13:56:47;102145.38;;;5.29;60.79
54920;BME280;63804;53.120;8.764;2023-03-04T13:59:39;102153.78;;;5.39;60.32
54920;BME280;63804;53.120;8.764;2023-03-04T14:02:14;102152.84;;;5.40;60.56
54920;BME280;63804;53.120;8.764;2023-03-04T14:05:00;102152.47;;;5.27;60.16
54920;BME280;63804;53.120;8.764;2023-03-04T14:07:27;102147.19;;;5.27;60.62
54920;BME280;63804;53.120;8.764;2023-03-04T14:12:39;102139.66;;;5.18;61.28
54920;BME280;63804;53.120;8.764;2023-03-04T14:17:44;102143.63;;;5.28;60.33
54920;BME280;63804;53.120;8.764;2023-03-04T14:22:58;102147.94;;;5.07;61.10
54920;BME280;63804;53.120;8.764;2023-03-04T14:28:14;102152.97;;;5.13;61.68
54920;BME280;63804;53.120;8.764;2023-03-04T14:30:42;102138.84;;;5.16;61.98
54920;BME280;63804;53.120;8.764;2023-03-04T14:33:13;102158.66;;;5.02;61.22
54920;BME280;63804;53.120;8.764;2023-03-04T14:35:45;102151.72;;;5.00;61.06
54920;BME280;63804;53.120;8.764;2023-03-04T14:38:28;102147.84;;;5.10;61.64
54920;BME280;63804;53.120;8.764;2023-03-04T14:41:00;102147.31;;;5.24;61.78
54920;BME280;63804;53.120;8.764;2023-03-04T14:43:32;102142.56;;;5.10;61.43
54920;BME280;63804;53.120;8.764;2023-03-04T14:46:00;102134.06;;;5.02;61.51
54920;BME280;63804;53.120;8.764;2023-03-04T14:48:30;102141.84;;;5.05;61.23
54920;BME280;63804;53.120;8.764;2023-03-04T14:50:57;102124.13;;;5.10;61.29
54920;BME280;63804;53.120;8.764;2023-03-04T14:53:25;102129.25;;;4.90;62.11
54920;BME280;63804;53.120;8.764;2023-03-04T14:58:28;102139.28;;;5.03;61.15
54920;BME280;63804;53.120;8.764;2023-03-04T15:01:16;102130.72;;;4.98;60.41
54920;BME280;63804;53.120;8.764;2023-03-04T15:06:32;102126.88;;;4.82;60.65
54920;BME280;63804;53.120;8.764;2023-03-04T15:09:04;102128.22;;;4.94;61.14
54920;BME280;63804;53.120;8.764;2023-03-04T15:11:43;102120.47;;;4.91;60.27
54920;BME280;63804;53.120;8.764;2023-03-04T15:14:47;102120.03;;;5.01;60.32